Milford, Texas
Current Conditions -  °F | °C
As of 4:15 PM on Wednesday 22 Oct 2014 (Local Time) from KINJ Reporting Station
Scattered Clouds Scattered Clouds  
Wind Chill: 27°   Ceiling: Unl
Heat Index: 27°   Visibility: 10mi
Dew Point: 13°   Wind: 6mph
Humidity: 41%   Direction: 90°E
Pressure: 30.08"   Gusts: NA
Location:  32.12°N, 96.95°W
Report Text: KINJ 222115Z AUTO 09005KT 10SM SCT055 27/13 A3008 RMK AO2 T02700126
Loading
Personal Weather Stations






























Interactive Weather Map
Tropical Storm Tracking
New forecast layout! Learn more

10-Day Weather Forecast

Advertisements
Track Severe Weather on mobile